createdAt,value
2018-06-11T00:00:10.776Z,23.10
2018-06-11T00:01:10.761Z,23.50
2018-06-11T00:02:10.751Z,21.50
2018-06-11T00:03:10.741Z,23.00
2018-06-11T00:04:10.725Z,22.00
2018-06-11T00:05:10.716Z,21.90
2018-06-11T00:06:10.697Z,22.20
2018-06-11T00:07:10.681Z,22.60
2018-06-11T00:08:10.728Z,21.60
2018-06-11T00:09:10.660Z,22.10
2018-06-11T00:10:10.642Z,22.40
2018-06-11T00:11:10.630Z,22.40
2018-06-11T00:12:10.626Z,21.30
2018-06-11T00:13:10.612Z,21.60
2018-06-11T00:14:10.598Z,22.40
2018-06-11T00:15:10.589Z,22.20
2018-06-11T00:16:10.578Z,21.60
2018-06-11T00:17:10.566Z,22.20
2018-06-11T00:18:10.547Z,21.60
2018-06-11T00:19:10.542Z,22.70
2018-06-11T00:20:10.520Z,20.70
2018-06-11T00:21:10.506Z,21.20
2018-06-11T00:22:10.499Z,22.50
2018-06-11T00:23:10.486Z,22.60
2018-06-11T00:24:10.472Z,20.70
2018-06-11T00:25:10.463Z,21.70
2018-06-11T00:26:10.448Z,22.00
2018-06-11T00:27:10.438Z,20.70
2018-06-11T00:28:10.425Z,21.40
2018-06-11T00:29:10.407Z,22.00
2018-06-11T00:30:10.401Z,22.20
2018-06-11T00:31:10.383Z,21.10
2018-06-11T00:32:10.377Z,22.80
2018-06-11T00:33:10.361Z,21.30
2018-06-11T00:34:10.342Z,22.00
2018-06-11T00:35:10.339Z,22.50
2018-06-11T00:36:10.323Z,22.10
2018-06-11T00:37:10.315Z,21.20
2018-06-11T00:38:10.300Z,22.20
2018-06-11T00:39:10.285Z,21.80
2018-06-11T00:40:10.269Z,22.10
2018-06-11T00:41:10.256Z,22.20
2018-06-11T00:42:10.250Z,23.00
2018-06-11T00:43:10.237Z,20.90
2018-06-11T00:44:10.220Z,21.80
2018-06-11T00:45:10.211Z,22.40
2018-06-11T00:46:10.199Z,22.80
2018-06-11T00:47:10.186Z,21.70
2018-06-11T00:48:10.169Z,22.00
2018-06-11T00:49:10.153Z,23.50
2018-06-11T00:50:10.148Z,22.60
2018-06-11T00:51:10.134Z,21.10
2018-06-11T00:52:10.122Z,21.80
2018-06-11T00:53:10.109Z,22.40
2018-06-11T00:54:10.099Z,21.90
2018-06-11T00:55:10.084Z,21.90
2018-06-11T00:56:10.071Z,19.90
2018-06-11T00:57:10.058Z,20.70
2018-06-11T00:58:10.048Z,21.90
2018-06-11T00:59:10.034Z,21.10
2018-06-11T01:00:10.017Z,20.10
2018-06-11T01:01:10.015Z,21.30
2018-06-11T01:02:09.995Z,20.20
2018-06-11T01:03:09.984Z,21.70
2018-06-11T01:04:09.970Z,21.90
2018-06-11T01:05:09.950Z,20.90
2018-06-11T01:06:09.948Z,21.40
2018-06-11T01:07:09.931Z,20.40
2018-06-11T01:08:09.912Z,20.60
2018-06-11T01:09:09.908Z,20.00
2018-06-11T01:10:09.886Z,20.30
2018-06-11T01:11:09.877Z,20.60
2018-06-11T01:12:09.871Z,19.50
2018-06-11T01:13:09.848Z,20.80
2018-06-11T01:14:09.842Z,20.40
2018-06-11T01:15:09.831Z,20.80
2018-06-11T01:16:09.815Z,20.40
2018-06-11T01:17:09.809Z,20.90
2018-06-11T01:18:09.789Z,19.60
2018-06-11T01:19:09.779Z,21.10
2018-06-11T01:20:09.764Z,19.60
2018-06-11T01:21:09.761Z,22.20
2018-06-11T01:22:09.731Z,20.60
2018-06-11T01:23:09.729Z,19.50
2018-06-11T01:24:09.705Z,19.90
2018-06-11T01:25:09.696Z,21.30
2018-06-11T01:26:09.687Z,19.50
2018-06-11T01:27:09.675Z,19.70
2018-06-11T01:28:09.665Z,20.60
2018-06-11T01:29:09.649Z,18.90
2018-06-11T01:30:09.636Z,20.40
2018-06-11T01:31:09.627Z,20.10
2018-06-11T01:32:09.612Z,20.70
2018-06-11T01:33:09.601Z,19.90
2018-06-11T01:34:09.583Z,20.70
2018-06-11T01:35:09.573Z,19.30
2018-06-11T01:36:09.556Z,19.30
2018-06-11T01:37:09.545Z,20.80
2018-06-11T01:38:09.538Z,20.00
2018-06-11T01:39:09.521Z,19.90
2018-06-11T01:40:09.511Z,19.90
2018-06-11T01:41:09.500Z,19.70
2018-06-11T01:42:09.479Z,20.10
2018-06-11T01:43:09.470Z,20.60
2018-06-11T01:44:09.456Z,19.30
2018-06-11T01:45:09.441Z,20.00
2018-06-11T01:46:09.431Z,20.20
2018-06-11T01:47:09.422Z,20.20
2018-06-11T01:48:09.405Z,19.60
2018-06-11T01:49:09.400Z,18.90
2018-06-11T01:50:09.377Z,20.00
2018-06-11T01:51:09.364Z,20.40
2018-06-11T01:52:09.357Z,21.60
2018-06-11T01:53:09.359Z,19.70
2018-06-11T01:54:09.332Z,20.70
2018-06-11T01:55:09.313Z,20.50
2018-06-11T01:56:09.297Z,20.20
2018-06-11T01:57:09.284Z,19.00
2018-06-11T01:58:09.280Z,20.30
2018-06-11T01:59:09.272Z,20.30
2018-06-11T02:00:09.248Z,19.20
2018-06-11T02:01:09.242Z,19.70
2018-06-11T02:02:09.224Z,19.00
2018-06-11T02:03:09.207Z,21.10
2018-06-11T02:04:09.203Z,20.00
2018-06-11T02:05:09.187Z,19.80
2018-06-11T02:06:09.167Z,19.90
2018-06-11T02:07:09.162Z,20.30
2018-06-11T02:08:09.149Z,20.30
2018-06-11T02:09:09.126Z,20.00
2018-06-11T02:10:09.124Z,19.60
2018-06-11T02:11:09.105Z,19.50
2018-06-11T02:12:09.097Z,20.70
2018-06-11T02:13:09.082Z,19.50
2018-06-11T02:14:09.081Z,19.80
2018-06-11T02:15:09.055Z,18.50
2018-06-11T02:16:09.050Z,19.60
2018-06-11T02:17:09.028Z,20.40
2018-06-11T02:18:09.023Z,19.20
2018-06-11T02:19:09.002Z,20.00
2018-06-11T02:20:09.091Z,20.40
2018-06-11T02:21:08.984Z,20.00
2018-06-11T02:22:08.967Z,18.20
2018-06-11T02:23:08.947Z,19.40
2018-06-11T02:24:08.950Z,19.20
2018-06-11T02:25:08.930Z,18.90
2018-06-11T02:26:08.963Z,18.40
2018-06-11T02:27:08.899Z,18.80
2018-06-11T02:28:08.886Z,18.60
2018-06-11T02:29:08.874Z,18.70
2018-06-11T02:30:08.957Z,19.40
2018-06-11T02:31:08.841Z,19.00
2018-06-11T02:32:08.832Z,19.20
2018-06-11T02:33:08.827Z,19.10
2018-06-11T02:34:08.859Z,19.20
2018-06-11T02:35:08.800Z,17.50
2018-06-11T02:36:08.793Z,18.20
2018-06-11T02:37:08.771Z,17.40
2018-06-11T02:38:08.758Z,17.90
2018-06-11T02:39:08.744Z,18.20
2018-06-11T02:40:08.739Z,18.30
2018-06-11T02:41:08.715Z,18.40
2018-06-11T02:42:08.710Z,18.10
2018-06-11T02:43:08.688Z,17.00
2018-06-11T02:44:08.681Z,18.20
2018-06-11T02:45:08.672Z,17.90
2018-06-11T02:46:08.652Z,16.90
2018-06-11T02:47:08.641Z,17.80
2018-06-11T02:48:08.632Z,18.30
2018-06-11T02:49:08.613Z,18.30
2018-06-11T02:50:08.601Z,16.80
2018-06-11T02:51:08.583Z,17.60
2018-06-11T02:52:08.579Z,16.50
2018-06-11T02:53:08.562Z,16.10
2018-06-11T02:54:08.552Z,16.40
2018-06-11T02:55:08.552Z,17.00
2018-06-11T02:56:08.524Z,17.60
2018-06-11T02:57:08.511Z,17.40
2018-06-11T02:58:08.499Z,16.70
2018-06-11T02:59:08.486Z,17.50
2018-06-11T03:00:08.472Z,16.40
2018-06-11T03:01:08.464Z,17.00
2018-06-11T03:02:08.498Z,17.10
2018-06-11T03:03:08.432Z,18.00
2018-06-11T03:04:08.425Z,15.80
2018-06-11T03:05:08.407Z,17.50
2018-06-11T03:06:08.387Z,16.80
2018-06-11T03:07:08.381Z,16.40
2018-06-11T03:08:08.372Z,17.70
2018-06-11T03:09:08.356Z,16.50
2018-06-11T03:10:08.343Z,17.20
2018-06-11T03:11:08.334Z,17.10
2018-06-11T03:12:08.318Z,17.20
2018-06-11T03:13:08.305Z,17.80
2018-06-11T03:14:08.291Z,16.90
2018-06-11T03:15:08.283Z,16.80
2018-06-11T03:16:08.270Z,16.80
2018-06-11T03:17:08.257Z,17.20
2018-06-11T03:18:08.238Z,16.90
2018-06-11T03:19:08.224Z,17.00
2018-06-11T03:20:08.222Z,18.10
2018-06-11T03:21:08.202Z,16.80
2018-06-11T03:22:08.193Z,17.30
2018-06-11T03:23:08.173Z,17.50
2018-06-11T03:24:08.167Z,17.20
2018-06-11T03:25:08.151Z,16.70
2018-06-11T03:26:08.142Z,17.10
2018-06-11T03:27:08.119Z,17.20
2018-06-11T03:28:08.107Z,16.80
2018-06-11T03:29:08.095Z,16.80
2018-06-11T03:30:08.087Z,17.00
2018-06-11T03:31:08.082Z,16.30
2018-06-11T03:32:08.062Z,16.80
2018-06-11T03:33:08.052Z,17.10
2018-06-11T03:34:08.036Z,16.80
2018-06-11T03:35:08.023Z,16.70
2018-06-11T03:36:08.008Z,16.30
2018-06-11T03:37:07.992Z,16.60
2018-06-11T03:38:07.991Z,17.00
2018-06-11T03:39:07.972Z,16.30
2018-06-11T03:40:07.960Z,15.80
2018-06-11T03:41:07.954Z,16.30
2018-06-11T03:42:07.928Z,16.30
2018-06-11T03:43:07.921Z,16.70
2018-06-11T03:44:07.911Z,16.00
2018-06-11T03:45:07.952Z,16.20
2018-06-11T03:46:07.879Z,16.40
2018-06-11T03:47:07.922Z,16.10
2018-06-11T03:48:07.858Z,15.20
2018-06-11T03:49:07.851Z,15.20
2018-06-11T03:50:07.831Z,15.00
2018-06-11T03:51:07.822Z,14.80
2018-06-11T03:52:07.808Z,14.30
2018-06-11T03:53:07.801Z,13.80
2018-06-11T03:54:07.781Z,14.20
2018-06-11T03:55:07.826Z,13.30
2018-06-11T03:56:07.762Z,15.50
2018-06-11T03:57:07.742Z,15.60
2018-06-11T03:58:07.743Z,14.60
2018-06-11T03:59:07.716Z,14.60
2018-06-11T04:00:07.708Z,13.00
2018-06-11T04:01:07.692Z,12.90
2018-06-11T04:02:07.679Z,13.00
2018-06-11T04:03:07.671Z,12.70
2018-06-11T04:04:07.649Z,12.40
2018-06-11T04:05:07.635Z,12.80
2018-06-11T04:06:07.628Z,12.20
2018-06-11T04:07:07.613Z,11.90
2018-06-11T04:08:07.595Z,11.90
2018-06-11T04:09:07.586Z,11.30
2018-06-11T04:10:07.576Z,11.40
2018-06-11T04:11:07.668Z,11.10
2018-06-11T04:12:07.551Z,10.30
2018-06-11T04:13:07.546Z,10.70
2018-06-11T04:14:07.528Z,10.30
2018-06-11T04:15:07.510Z,10.30
2018-06-11T04:16:07.496Z,10.20
2018-06-11T04:17:07.491Z,10.50
2018-06-11T04:18:07.484Z,10.40
2018-06-11T04:19:07.459Z,11.00
2018-06-11T04:20:07.446Z,10.00
2018-06-11T04:21:07.442Z,10.30
2018-06-11T04:22:07.422Z,10.60
2018-06-11T04:23:07.413Z,9.90
2018-06-11T04:24:07.390Z,10.60
2018-06-11T04:25:07.390Z,9.90
2018-06-11T04:26:07.378Z,10.00
2018-06-11T04:27:07.362Z,9.90
2018-06-11T04:28:07.348Z,10.10
2018-06-11T04:29:07.330Z,10.20
2018-06-11T04:30:07.320Z,9.80
2018-06-11T04:31:07.307Z,9.90
2018-06-11T04:32:07.291Z,10.20
2018-06-11T04:33:07.282Z,9.70
2018-06-11T04:34:07.271Z,9.60
2018-06-11T04:35:07.250Z,9.30
2018-06-11T04:36:07.235Z,10.10
2018-06-11T04:37:07.231Z,17.80
2018-06-11T04:38:07.215Z,26.20
2018-06-11T04:39:07.208Z,12.60
2018-06-11T04:40:07.193Z,10.10
2018-06-11T04:41:07.177Z,10.60
2018-06-11T04:42:07.244Z,15.20
2018-06-11T04:43:07.151Z,14.60
2018-06-11T04:44:07.142Z,10.30
2018-06-11T04:45:07.123Z,9.10
2018-06-11T04:46:07.124Z,8.70
2018-06-11T04:47:07.097Z,8.30
2018-06-11T04:48:07.098Z,8.90
2018-06-11T04:49:07.075Z,9.40
2018-06-11T04:50:07.063Z,8.80
2018-06-11T04:51:07.059Z,9.20
2018-06-11T04:52:07.043Z,8.70
2018-06-11T04:53:07.016Z,8.90
2018-06-11T04:54:07.009Z,9.00
2018-06-11T04:55:07.032Z,8.90
2018-06-11T04:56:06.984Z,8.90
2018-06-11T04:57:06.979Z,8.80
2018-06-11T04:58:06.957Z,8.40
2018-06-11T04:59:06.953Z,9.20
2018-06-11T05:00:06.927Z,10.00
2018-06-11T05:01:06.917Z,9.10
2018-06-11T05:02:06.908Z,8.80
2018-06-11T05:03:06.892Z,9.20
2018-06-11T05:04:06.878Z,8.80
2018-06-11T05:05:06.872Z,8.80
2018-06-11T05:06:06.852Z,9.20
2018-06-11T05:07:06.843Z,9.30
2018-06-11T05:08:06.827Z,9.30
2018-06-11T05:09:06.810Z,9.20
2018-06-11T05:10:06.819Z,9.80
2018-06-11T05:11:06.791Z,9.10
2018-06-11T05:12:06.781Z,9.10
2018-06-11T05:13:06.763Z,8.90
2018-06-11T05:14:06.744Z,9.50
2018-06-11T05:15:06.734Z,8.70
2018-06-11T05:16:06.740Z,8.60
2018-06-11T05:17:06.714Z,8.70
2018-06-11T05:18:06.692Z,9.30
2018-06-11T05:19:06.687Z,9.00
2018-06-11T05:20:06.706Z,9.80
2018-06-11T05:21:06.657Z,8.90
2018-06-11T05:22:06.644Z,9.20
2018-06-11T05:23:06.632Z,9.00
2018-06-11T05:24:06.622Z,8.70
2018-06-11T05:25:06.602Z,8.90
2018-06-11T05:26:06.585Z,9.60
2018-06-11T05:27:06.586Z,9.80
2018-06-11T05:28:06.564Z,8.50
2018-06-11T05:29:06.564Z,9.70
2018-06-11T05:30:06.543Z,8.80
2018-06-11T05:31:06.532Z,9.70
2018-06-11T05:32:06.515Z,8.90
2018-06-11T05:33:06.496Z,9.40
2018-06-11T05:34:06.487Z,8.90
2018-06-11T05:35:06.471Z,9.10
2018-06-11T05:36:06.472Z,9.70
2018-06-11T05:37:06.452Z,9.40
2018-06-11T05:38:06.476Z,9.10
2018-06-11T05:39:06.424Z,10.10
2018-06-11T05:40:06.420Z,10.30
2018-06-11T05:41:06.401Z,9.60
2018-06-11T05:42:06.391Z,9.00
2018-06-11T05:43:06.386Z,9.30
2018-06-11T05:44:06.364Z,9.50
2018-06-11T05:45:06.354Z,10.10
2018-06-11T05:46:06.336Z,9.90
2018-06-11T05:47:06.323Z,9.40
2018-06-11T05:48:06.308Z,9.70
2018-06-11T05:49:06.304Z,10.20
2018-06-11T05:50:06.293Z,9.70
2018-06-11T05:51:06.269Z,10.20
2018-06-11T05:52:06.256Z,10.10
2018-06-11T05:53:06.257Z,9.50
2018-06-11T05:54:06.233Z,10.00
2018-06-11T05:55:06.217Z,9.70
2018-06-11T05:56:06.207Z,9.90
2018-06-11T05:57:06.199Z,9.00
2018-06-11T05:58:06.183Z,9.40
2018-06-11T05:59:06.176Z,9.30
2018-06-11T06:00:06.163Z,10.20
2018-06-11T06:01:06.153Z,9.50
2018-06-11T06:02:06.131Z,10.50
2018-06-11T06:03:06.130Z,9.80
2018-06-11T06:04:06.110Z,9.90
2018-06-11T06:05:06.106Z,9.30
2018-06-11T06:06:06.086Z,9.60
2018-06-11T06:07:06.063Z,9.60
2018-06-11T06:08:06.059Z,10.30
2018-06-11T06:09:06.202Z,9.70
2018-06-11T06:10:06.026Z,9.70
2018-06-11T06:11:06.115Z,10.50
2018-06-11T06:12:06.012Z,9.00
2018-06-11T06:13:05.991Z,10.00
2018-06-11T06:14:05.983Z,9.60
2018-06-11T06:15:06.023Z,9.40
2018-06-11T06:16:05.953Z,10.50
2018-06-11T06:17:05.981Z,9.90
2018-06-11T06:18:05.930Z,10.00
2018-06-11T06:19:06.063Z,9.70
2018-06-11T06:20:05.908Z,10.30
2018-06-11T06:21:05.940Z,10.30
2018-06-11T06:22:05.877Z,10.20
2018-06-11T06:23:05.867Z,10.10
2018-06-11T06:24:05.854Z,10.00
2018-06-11T06:25:05.842Z,9.80
2018-06-11T06:26:05.827Z,10.40
2018-06-11T06:27:05.824Z,9.90
2018-06-11T06:28:05.803Z,10.40
2018-06-11T06:29:05.793Z,9.70
2018-06-11T06:30:05.778Z,9.70
2018-06-11T06:31:05.768Z,9.00
2018-06-11T06:32:05.759Z,10.40
2018-06-11T06:33:05.745Z,10.30
2018-06-11T06:34:05.757Z,9.70
2018-06-11T06:35:05.717Z,9.90
2018-06-11T06:36:05.703Z,10.10
2018-06-11T06:37:05.701Z,10.60
2018-06-11T06:38:05.682Z,10.00
2018-06-11T06:39:05.672Z,10.20
2018-06-11T06:40:05.660Z,10.00
2018-06-11T06:41:05.645Z,11.00
2018-06-11T06:42:05.629Z,9.70
2018-06-11T06:43:05.620Z,10.30
2018-06-11T06:44:05.609Z,10.00
2018-06-11T06:45:05.599Z,10.00
2018-06-11T06:46:05.579Z,10.20
2018-06-11T06:47:05.571Z,10.00
2018-06-11T06:48:05.557Z,10.70
2018-06-11T06:49:05.548Z,9.90
2018-06-11T06:50:05.537Z,9.70
2018-06-11T06:51:05.519Z,10.50
2018-06-11T06:52:05.511Z,9.80
2018-06-11T06:53:05.497Z,10.20
2018-06-11T06:54:05.485Z,10.90
2018-06-11T06:55:05.477Z,9.80
2018-06-11T06:56:05.461Z,9.90
2018-06-11T06:57:05.452Z,11.00
2018-06-11T06:58:05.441Z,11.00
2018-06-11T06:59:05.427Z,10.10
2018-06-11T07:00:05.417Z,10.40
2018-06-11T07:01:05.401Z,10.70
2018-06-11T07:02:05.391Z,11.00
2018-06-11T07:03:05.382Z,10.60
2018-06-11T07:04:05.362Z,10.50
2018-06-11T07:05:05.359Z,11.10
2018-06-11T07:06:05.344Z,11.40
2018-06-11T07:07:05.331Z,10.90
2018-06-11T07:08:05.381Z,11.10
2018-06-11T07:09:05.309Z,10.80
2018-06-11T07:10:05.293Z,11.00
2018-06-11T07:11:05.289Z,11.20
2018-06-11T07:12:05.274Z,11.00
2018-06-11T07:13:05.258Z,11.20
2018-06-11T07:14:05.247Z,10.90
2018-06-11T07:15:05.245Z,10.90
2018-06-11T07:16:05.227Z,10.90
2018-06-11T07:17:05.220Z,11.10
2018-06-11T07:18:05.201Z,11.00
2018-06-11T07:19:05.191Z,11.20
2018-06-11T07:20:05.182Z,11.10
2018-06-11T07:21:05.172Z,12.10
2018-06-11T07:22:05.202Z,12.00
2018-06-11T07:23:05.147Z,12.00
2018-06-11T07:24:05.145Z,12.20
2018-06-11T07:25:05.124Z,12.20
2018-06-11T07:26:05.207Z,12.00
2018-06-11T07:27:05.143Z,11.60
2018-06-11T07:28:05.144Z,12.80
2018-06-11T07:29:05.075Z,12.10
2018-06-11T07:30:05.170Z,11.70
2018-06-11T07:31:05.053Z,12.60
2018-06-11T07:32:05.137Z,12.20
2018-06-11T07:33:05.035Z,12.30
2018-06-11T07:34:05.017Z,10.80
2018-06-11T07:35:05.008Z,12.40
2018-06-11T07:36:04.997Z,12.70
2018-06-11T07:37:04.992Z,11.90
2018-06-11T07:38:04.974Z,12.70
2018-06-11T07:39:04.970Z,12.10
2018-06-11T07:40:04.956Z,12.20
2018-06-11T07:41:04.960Z,11.60
2018-06-11T07:42:04.924Z,12.20
2018-06-11T07:43:04.921Z,11.40
2018-06-11T07:44:04.916Z,12.80
2018-06-11T07:45:04.908Z,11.20
2018-06-11T07:46:04.886Z,11.10
2018-06-11T07:47:04.883Z,12.00
2018-06-11T07:48:04.873Z,12.30
2018-06-11T07:49:04.857Z,11.40
2018-06-11T07:50:04.851Z,11.50
2018-06-11T07:51:04.844Z,11.70
2018-06-11T07:52:04.826Z,12.10
2018-06-11T07:53:04.822Z,12.20
2018-06-11T07:54:04.808Z,12.40
2018-06-11T07:55:04.798Z,12.50
2018-06-11T07:56:04.785Z,11.80
2018-06-11T07:57:04.781Z,12.00
2018-06-11T07:58:04.768Z,11.90
2018-06-11T07:59:04.752Z,11.10
2018-06-11T08:00:04.747Z,11.30
2018-06-11T08:01:04.737Z,12.00
2018-06-11T08:02:04.727Z,12.00
2018-06-11T08:03:04.714Z,12.30
2018-06-11T08:04:04.711Z,11.90
2018-06-11T08:05:04.699Z,12.00
2018-06-11T08:06:04.692Z,12.00
2018-06-11T08:07:04.683Z,12.10
2018-06-11T08:08:04.674Z,11.90
2018-06-11T08:09:04.667Z,12.10
2018-06-11T08:10:04.651Z,12.00
2018-06-11T08:11:04.644Z,12.10
2018-06-11T08:12:04.638Z,12.30
2018-06-11T08:13:04.624Z,12.10
2018-06-11T08:14:04.618Z,12.40
2018-06-11T08:15:04.616Z,12.60
2018-06-11T08:16:04.602Z,12.30
2018-06-11T08:17:04.597Z,12.50
2018-06-11T08:18:04.578Z,13.50
2018-06-11T08:19:04.618Z,13.10
2018-06-11T08:20:04.557Z,12.40
2018-06-11T08:21:04.557Z,12.80
2018-06-11T08:22:04.547Z,12.40
2018-06-11T08:23:04.541Z,12.90
2018-06-11T08:24:04.520Z,12.30
2018-06-11T08:25:04.522Z,13.60
2018-06-11T08:26:04.505Z,12.70
2018-06-11T08:27:04.504Z,13.50
2018-06-11T08:28:04.485Z,13.70
2018-06-11T08:29:04.488Z,12.20
2018-06-11T08:30:04.482Z,12.90
2018-06-11T08:31:04.458Z,12.40
2018-06-11T08:32:04.447Z,12.30
2018-06-11T08:33:04.446Z,12.60
2018-06-11T08:34:04.438Z,12.60
2018-06-11T08:35:04.428Z,12.40
2018-06-11T08:36:04.425Z,12.80
2018-06-11T08:37:04.408Z,12.10
2018-06-11T08:38:04.405Z,12.10
2018-06-11T08:39:04.391Z,12.60
2018-06-11T08:40:04.383Z,12.90
2018-06-11T08:41:04.377Z,13.00
2018-06-11T08:42:04.371Z,12.40
2018-06-11T08:43:04.357Z,11.80
2018-06-11T08:44:04.357Z,12.20
2018-06-11T08:45:04.361Z,11.80
2018-06-11T08:46:04.347Z,11.80
2018-06-11T08:47:04.332Z,12.20
2018-06-11T08:48:04.322Z,11.90
2018-06-11T08:49:04.309Z,12.40
2018-06-11T08:50:04.349Z,12.50
2018-06-11T08:51:04.294Z,12.20
2018-06-11T08:52:04.286Z,12.00
2018-06-11T08:53:04.287Z,12.00
2018-06-11T08:54:04.261Z,12.20
2018-06-11T08:55:04.268Z,12.00
2018-06-11T08:56:04.255Z,12.20
2018-06-11T08:57:04.246Z,12.40
2018-06-11T08:58:04.238Z,12.40
2018-06-11T08:59:04.227Z,11.00
2018-06-11T09:00:04.229Z,11.40
2018-06-11T09:01:04.217Z,11.70
2018-06-11T09:02:04.216Z,10.70
2018-06-11T09:03:04.194Z,11.70
2018-06-11T09:04:04.202Z,11.90
2018-06-11T09:05:04.188Z,11.60
2018-06-11T09:06:04.182Z,11.80
2018-06-11T09:07:04.217Z,11.10
2018-06-11T09:08:04.169Z,12.20
2018-06-11T09:09:04.166Z,12.00
2018-06-11T09:10:04.162Z,11.90
2018-06-11T09:11:04.153Z,10.60
2018-06-11T09:12:04.143Z,11.90
2018-06-11T09:13:04.134Z,10.80
2018-06-11T09:14:04.136Z,11.20
2018-06-11T09:15:04.133Z,11.30
2018-06-11T09:16:04.131Z,10.60
2018-06-11T09:17:04.118Z,11.00
2018-06-11T09:18:04.187Z,11.30
2018-06-11T09:19:04.112Z,10.90
2018-06-11T09:20:04.107Z,10.90
2018-06-11T09:21:04.106Z,11.10
2018-06-11T09:22:04.104Z,10.40
2018-06-11T09:23:04.092Z,11.70
2018-06-11T09:24:04.092Z,10.70
2018-06-11T09:25:04.146Z,9.70
2018-06-11T09:26:04.081Z,10.60
2018-06-11T09:27:04.078Z,10.60
2018-06-11T09:28:04.080Z,11.10
2018-06-11T09:29:04.079Z,11.40
2018-06-11T09:30:04.071Z,10.40
2018-06-11T09:31:04.149Z,10.60
2018-06-11T09:32:04.057Z,10.50
2018-06-11T09:33:04.056Z,11.00
2018-06-11T09:34:04.051Z,10.70
2018-06-11T09:35:04.047Z,10.30
2018-06-11T09:36:04.050Z,10.70
2018-06-11T09:37:04.048Z,10.90
2018-06-11T09:38:04.090Z,11.20
2018-06-11T09:39:04.038Z,10.50
2018-06-11T09:40:04.028Z,10.50
2018-06-11T09:41:04.027Z,10.10
2018-06-11T09:42:04.040Z,9.40
2018-06-11T09:43:04.033Z,10.00
2018-06-11T09:44:04.160Z,10.20
2018-06-11T09:45:04.020Z,10.30
2018-06-11T09:46:04.013Z,11.80
2018-06-11T09:47:04.014Z,10.60
2018-06-11T09:48:04.008Z,10.60
2018-06-11T09:49:04.003Z,10.00
2018-06-11T09:50:04.000Z,9.90
2018-06-11T09:51:03.992Z,9.50
2018-06-11T09:52:03.991Z,8.90
2018-06-11T09:53:03.989Z,10.10
2018-06-11T09:54:03.982Z,9.80
2018-06-11T09:55:03.983Z,9.60
2018-06-11T09:56:03.973Z,10.10
2018-06-11T09:57:03.968Z,9.80
2018-06-11T09:58:03.953Z,10.30
2018-06-11T09:59:03.965Z,10.60
2018-06-11T10:00:03.949Z,9.70
2018-06-11T10:01:03.947Z,8.90
2018-06-11T10:02:03.940Z,9.30
2018-06-11T10:03:03.940Z,8.70
2018-06-11T10:04:03.932Z,9.80
2018-06-11T10:05:03.923Z,8.70
2018-06-11T10:06:03.923Z,10.10
2018-06-11T10:07:03.914Z,10.30
2018-06-11T10:08:03.905Z,9.60
2018-06-11T10:09:03.941Z,8.50
2018-06-11T10:10:03.896Z,8.70
2018-06-11T10:11:03.888Z,9.20
2018-06-11T10:12:03.899Z,9.40
2018-06-11T10:13:03.877Z,9.40
2018-06-11T10:14:03.876Z,9.30
2018-06-11T10:15:03.869Z,9.10
2018-06-11T10:16:03.932Z,9.80
2018-06-11T10:17:03.858Z,9.50
2018-06-11T10:18:03.912Z,9.80
2018-06-11T10:19:03.903Z,9.50
2018-06-11T10:20:03.882Z,9.80
2018-06-11T10:21:03.837Z,9.90
2018-06-11T10:22:03.831Z,10.50
2018-06-11T10:23:03.831Z,10.20
2018-06-11T10:24:03.879Z,10.20
2018-06-11T10:25:03.819Z,10.30
2018-06-11T10:26:03.811Z,10.50
2018-06-11T10:27:03.802Z,11.00
2018-06-11T10:28:03.802Z,10.30
2018-06-11T10:29:03.787Z,9.90
2018-06-11T10:30:03.777Z,9.20
2018-06-11T10:31:03.786Z,9.30
2018-06-11T10:32:03.770Z,9.10
2018-06-11T10:33:03.768Z,9.60
2018-06-11T10:34:03.758Z,9.30
2018-06-11T10:35:03.752Z,9.40
2018-06-11T10:36:03.847Z,9.80
2018-06-11T10:37:03.742Z,9.10
2018-06-11T10:38:03.732Z,8.20
2018-06-11T10:39:03.752Z,9.10
2018-06-11T10:40:03.724Z,9.00
2018-06-11T10:41:03.719Z,9.70
2018-06-11T10:42:03.705Z,9.00
2018-06-11T10:43:03.768Z,8.80
2018-06-11T10:44:03.694Z,8.90
2018-06-11T10:45:03.685Z,9.00
2018-06-11T10:46:03.674Z,8.40
2018-06-11T10:47:03.827Z,9.40
2018-06-11T10:48:03.665Z,8.80
2018-06-11T10:49:03.757Z,9.10
2018-06-11T10:50:03.652Z,9.00
2018-06-11T10:51:03.648Z,9.80
2018-06-11T10:52:03.639Z,10.20
2018-06-11T10:53:03.686Z,10.30
2018-06-11T10:54:03.632Z,10.10
2018-06-11T10:55:03.626Z,8.80
2018-06-11T10:56:03.615Z,8.20
2018-06-11T10:57:03.613Z,9.50
2018-06-11T10:58:03.658Z,8.90
2018-06-11T10:59:03.590Z,8.50
2018-06-11T11:00:03.584Z,8.90
2018-06-11T11:01:03.591Z,9.40
2018-06-11T11:02:03.578Z,9.40
2018-06-11T11:03:03.572Z,9.60
2018-06-11T11:04:03.571Z,9.60
2018-06-11T11:05:03.566Z,9.50
2018-06-11T11:06:03.562Z,9.60
2018-06-11T11:07:03.543Z,9.00
2018-06-11T11:08:03.543Z,8.90
2018-06-11T11:09:03.530Z,8.90
2018-06-11T11:10:03.523Z,8.60
2018-06-11T11:11:03.520Z,8.30
2018-06-11T11:12:03.508Z,8.50
2018-06-11T11:13:03.530Z,9.30
2018-06-11T11:14:03.502Z,8.70
2018-06-11T11:15:03.492Z,8.20
2018-06-11T11:16:03.488Z,8.80
2018-06-11T11:17:03.479Z,8.30
2018-06-11T11:18:03.469Z,9.40
2018-06-11T11:19:03.467Z,9.90
2018-06-11T11:20:03.533Z,9.70
2018-06-11T11:21:03.464Z,8.80
2018-06-11T11:22:03.485Z,9.00
2018-06-11T11:23:03.434Z,8.10
2018-06-11T11:24:03.504Z,8.20
2018-06-11T11:25:03.427Z,8.10
2018-06-11T11:26:03.425Z,8.30
2018-06-11T11:27:03.412Z,9.70
2018-06-11T11:28:03.409Z,8.70
2018-06-11T11:29:03.403Z,8.40
2018-06-11T11:30:03.392Z,8.30
2018-06-11T11:31:03.389Z,9.30
2018-06-11T11:32:03.383Z,9.30
2018-06-11T11:33:03.373Z,10.10
2018-06-11T11:34:03.367Z,10.70
2018-06-11T11:35:03.373Z,9.90
2018-06-11T11:36:03.364Z,9.60
2018-06-11T11:37:03.350Z,8.60
2018-06-11T11:38:03.348Z,8.50
2018-06-11T11:39:03.343Z,8.70
2018-06-11T11:40:03.332Z,9.60
2018-06-11T11:41:03.338Z,9.50
2018-06-11T11:42:03.323Z,9.20
2018-06-11T11:43:03.312Z,9.40
2018-06-11T11:44:03.312Z,9.00
2018-06-11T11:45:03.304Z,10.40
2018-06-11T11:46:03.290Z,9.70
2018-06-11T11:47:03.287Z,11.80
2018-06-11T11:48:03.284Z,13.20
2018-06-11T11:49:03.278Z,11.70
2018-06-11T11:50:03.268Z,9.70
2018-06-11T11:51:03.276Z,9.90
2018-06-11T11:52:03.259Z,9.90
2018-06-11T11:53:03.249Z,9.30
2018-06-11T11:54:03.251Z,9.50
2018-06-11T11:55:03.240Z,9.80
2018-06-11T11:56:03.236Z,9.30
2018-06-11T11:57:03.227Z,9.20
2018-06-11T11:58:03.222Z,10.60
2018-06-11T11:59:03.211Z,11.30
2018-06-11T12:00:03.209Z,11.30
2018-06-11T12:01:03.199Z,10.50
2018-06-11T12:02:03.192Z,8.50
2018-06-11T12:03:03.186Z,8.70
2018-06-11T12:04:03.182Z,11.90
2018-06-11T12:05:03.183Z,10.40
2018-06-11T12:06:03.172Z,9.50
2018-06-11T12:07:03.165Z,9.80
2018-06-11T12:08:03.164Z,9.80
2018-06-11T12:09:03.161Z,10.80
2018-06-11T12:10:03.151Z,9.80
2018-06-11T12:11:03.143Z,10.20
2018-06-11T12:12:03.133Z,9.50
2018-06-11T12:13:03.135Z,10.80
2018-06-11T12:14:03.123Z,10.40
2018-06-11T12:15:03.162Z,9.90
2018-06-11T12:16:03.111Z,8.60
2018-06-11T12:17:03.114Z,8.70
2018-06-11T12:18:03.097Z,11.00
2018-06-11T12:19:03.132Z,8.90
2018-06-11T12:20:03.094Z,10.20
2018-06-11T12:21:03.081Z,9.90
2018-06-11T12:22:03.078Z,9.70
2018-06-11T12:23:03.185Z,10.80
2018-06-11T12:24:03.071Z,9.30
2018-06-11T12:25:03.091Z,8.90
2018-06-11T12:26:03.058Z,9.60
2018-06-11T12:27:03.057Z,10.90
2018-06-11T12:28:03.042Z,9.90
2018-06-11T12:29:03.036Z,9.60
2018-06-11T12:30:03.031Z,9.70
2018-06-11T12:31:03.020Z,9.50
2018-06-11T12:32:03.010Z,10.10
2018-06-11T12:33:03.009Z,9.50
2018-06-11T12:34:02.994Z,9.50
2018-06-11T12:35:03.001Z,10.00
2018-06-11T12:36:02.987Z,9.90
2018-06-11T12:37:02.991Z,9.60
2018-06-11T12:38:02.981Z,9.70
2018-06-11T12:39:02.971Z,11.00
2018-06-11T12:40:02.971Z,12.80
2018-06-11T12:41:02.961Z,16.30
2018-06-11T12:42:02.956Z,12.30
2018-06-11T12:43:02.948Z,12.70
2018-06-11T12:44:02.997Z,10.50
2018-06-11T12:45:02.939Z,10.60
2018-06-11T12:46:02.931Z,10.60
2018-06-11T12:47:02.931Z,10.20
2018-06-11T12:48:02.919Z,11.30
2018-06-11T12:49:02.921Z,10.00
2018-06-11T12:50:02.908Z,8.80
2018-06-11T12:51:02.901Z,9.60
2018-06-11T12:52:02.898Z,9.30
2018-06-11T12:53:02.898Z,10.00
2018-06-11T12:54:02.880Z,9.30
2018-06-11T12:55:02.876Z,8.80
2018-06-11T12:56:02.873Z,9.20
2018-06-11T12:57:02.873Z,9.80
2018-06-11T12:58:02.857Z,9.40
2018-06-11T12:59:02.853Z,9.00
2018-06-11T13:00:02.852Z,9.50